Lovely Linda — WCV8236 — position and weather

sailwx.info

Track history (hours):
 
Tides and Currents Weather Stations Pressure Air Temp Water Temp Dewpoint Dewpoint Depression Visibility Wind Speed Wind Dir Waves Ship Positions

Lovely Linda

Owner: LUGO, PETER A, CAPE CORAL, FL. More information available from US FCC via Universal Licensing System and Coast Guard Vessel Documentation Center.

Last reported at 2018-Jun-23 14:00 UTC. Time now 2018-Jun-23 14:14 UTC.
Position N 34°23' W 120°08'.

Length 32 m.

Type: Passenger vessel. MMSI: 367077090.

Date/timePositionNaut miles runAvg speedWind from/ knotsBaromVisibWave heightAir tempDewpointWater temp
2018-Jun-23 14:00N 34°23' W 120°08'1 1.4
2018-Jun-23 13:23N 34°23' W 120°07'0 0.0
2018-Jun-23 12:47N 34°23' W 120°07'0 0.0
2018-Jun-23 12:29N 34°23' W 120°07'0 0.0
2018-Jun-23 11:59N 34°23' W 120°07'0 0.0
2018-Jun-23 11:29N 34°23' W 120°07'0 0.0
2018-Jun-23 10:11N 34°23' W 120°07'0 0.0
2018-Jun-23 09:59N 34°23' W 120°07'0 0.0
2018-Jun-23 09:26N 34°23' W 120°07'0 0.0
2018-Jun-23 08:59N 34°23' W 120°07'0 0.0
2018-Jun-23 08:29N 34°23' W 120°07'0 0.0
2018-Jun-23 07:59N 34°23' W 120°07'0 0.0
2018-Jun-23 07:17N 34°23' W 120°07'0 0.0
2018-Jun-23 06:59N 34°23' W 120°07'0 0.0
2018-Jun-23 06:29N 34°23' W 120°07'0 0.0
2018-Jun-23 05:59N 34°23' W 120°07'0 0.0
2018-Jun-23 05:29N 34°23' W 120°07'0 0.0
2018-Jun-23 04:59N 34°23' W 120°07'0 0.0
2018-Jun-23 04:29N 34°23' W 120°07'0 0.0
2018-Jun-23 03:59N 34°23' W 120°07'0 0.0
2018-Jun-23 03:29N 34°23' W 120°07'0 0.0
2018-Jun-23 02:53N 34°23' W 120°07'0 0.1
2018-Jun-23 02:28N 34°23' W 120°07'0 0.0
2018-Jun-23 01:52N 34°23' W 120°07'0 0.0
2018-Jun-23 01:28N 34°23' W 120°07'0 0.1
2018-Jun-23 00:58N 34°23' W 120°07'0 0.1
2018-Jun-23 00:25N 34°23' W 120°07'0 0.0
2018-Jun-22 23:52N 34°23' W 120°07'0 0.0
2018-Jun-22 23:28N 34°23' W 120°07'2 3.3
2018-Jun-22 23:00N 34°23' W 120°09'3 5.3
2018-Jun-22 22:30N 34°22' W 120°12'4 8.0
2018-Jun-22 21:59N 34°21' W 120°17'713.3
2018-Jun-22 21:30N 34°19' W 120°09'915.1
2018-Jun-22 20:55N 34°18' W 119°59'814.9
2018-Jun-22 20:22N 34°16' W 119°49'514.8
2018-Jun-22 20:00N 34°15' W 119°43'814.9
2018-Jun-22 19:26N 34°13' W 119°33'714.6
2018-Jun-22 18:57N 34°12' W 119°24'714.5
2018-Jun-22 18:28N 34°09' W 119°16'4 7.1
2018-Jun-22 17:58N 34°09' W 119°12'0 0.0
2018-Jun-22 17:28N 34°09' W 119°12'0 0.0
2018-Jun-22 16:58N 34°09' W 119°12'0 0.0
2018-Jun-22 16:28N 34°09' W 119°12'0 0.0
2018-Jun-22 15:55N 34°09' W 119°12'0 0.0
2018-Jun-22 15:25N 34°09' W 119°12'0 0.0
2018-Jun-22 14:58N 34°09' W 119°12'0 0.0
2018-Jun-22 14:25N 34°09' W 119°12'0 0.0
2018-Jun-22 14:00N 34°09' W 119°12'0 0.0
2018-Jun-22 13:28N 34°09' W 119°12'0 0.0
2018-Jun-22 12:58N 34°09' W 119°12'0 0.0
2018-Jun-22 12:22N 34°09' W 119°12'0 0.0
2018-Jun-22 11:58N 34°09' W 119°12'0 0.0
2018-Jun-22 11:22N 34°09' W 119°12'0 0.0
2018-Jun-22 10:58N 34°09' W 119°12'0 0.0
2018-Jun-22 10:28N 34°09' W 119°12'0 0.0
2018-Jun-22 09:58N 34°09' W 119°12'0 0.0
2018-Jun-22 09:28N 34°09' W 119°12'0 0.0
2018-Jun-22 08:58N 34°09' W 119°12'0 0.0
2018-Jun-22 08:25N 34°09' W 119°12'0 0.0
2018-Jun-22 07:58N 34°09' W 119°12'0 0.0
2018-Jun-22 07:22N 34°09' W 119°12'0 0.0
2018-Jun-22 06:55N 34°09' W 119°12'0 0.0
2018-Jun-22 06:28N 34°09' W 119°12'0 0.0
2018-Jun-22 05:57N 34°09' W 119°12'0 0.0
2018-Jun-22 05:21N 34°09' W 119°12'0 0.0
2018-Jun-22 05:00N 34°09' W 119°12'0 0.0
2018-Jun-22 04:30N 34°09' W 119°12'0 0.0
2018-Jun-22 04:00N 34°09' W 119°12'0 0.0
2018-Jun-22 03:30N 34°09' W 119°12'0 0.0
2018-Jun-22 03:00N 34°09' W 119°12'0 0.0
2018-Jun-22 02:27N 34°09' W 119°12'0 0.0
2018-Jun-22 01:58N 34°09' W 119°12'0 0.0
2018-Jun-22 01:19N 34°09' W 119°12'2 7.7
2018-Jun-22 01:00N 34°09' W 119°15'814.9
2018-Jun-22 00:28N 34°12' W 119°24'815.4
2018-Jun-21 23:57N 34°15' W 119°33'714.9
2018-Jun-21 23:27N 34°19' W 119°41'1314.6
2018-Jun-21 22:34N 34°24' W 119°55'212.6
2018-Jun-21 22:24N 34°26' W 119°55'411.0
2018-Jun-21 22:00N 34°24' W 120°00'714.0
2018-Jun-21 21:28N 34°22' W 120°09'1 1.5
2018-Jun-21 20:59N 34°22' W 120°10'0 0.0
2018-Jun-21 20:27N 34°22' W 120°10'0 0.0
2018-Jun-21 19:57N 34°22' W 120°10'0 0.5
2018-Jun-21 19:26N 34°23' W 120°10'2 4.6
2018-Jun-21 19:00N 34°22' W 120°12'4 7.6
2018-Jun-21 18:30N 34°21' W 120°17'610.5
2018-Jun-21 17:57N 34°22' W 120°10'0 0.0
2018-Jun-21 17:30N 34°22' W 120°10'0 0.0
2018-Jun-21 17:00N 34°22' W 120°10'0 0.0
2018-Jun-21 16:29N 34°22' W 120°10'0 0.0
2018-Jun-21 15:59N 34°22' W 120°10'713.5
2018-Jun-21 15:30N 34°24' W 120°02'611.4
2018-Jun-21 15:00N 34°26' W 119°55'0 0.1
2018-Jun-21 14:30N 34°26' W 119°55'0 0.1
2018-Jun-21 12:36N 34°26' W 119°55'0 0.0
2018-Jun-21 05:24N 34°26' W 119°55'0 0.0
2018-Jun-21 01:42N 34°26' W 119°55'0 0.0
2018-Jun-21 01:15N 34°26' W 119°55'0 0.0
2018-Jun-21 00:59N 34°26' W 119°55'4 7.4
2018-Jun-21 00:23N 34°24' W 120°00'614.2
2018-Jun-20 23:58N 34°23' W 120°07'2 5.1
2018-Jun-20 23:29N 34°23' W 120°10'611.7
2018-Jun-20 23:00N 34°21' W 120°17'611.8
2018-Jun-20 22:30N 34°22' W 120°10'0 0.0
2018-Jun-20 22:00N 34°22' W 120°10'0 0.0
2018-Jun-20 21:30N 34°23' W 120°10'0 0.0
2018-Jun-20 20:59N 34°23' W 120°10'0 0.0
2018-Jun-20 20:29N 34°23' W 120°10'0 0.0
2018-Jun-20 19:59N 34°23' W 120°10'2 4.8
2018-Jun-20 19:30N 34°23' W 120°07'2 5.0
2018-Jun-20 19:00N 34°23' W 120°10'2 4.3
2018-Jun-20 18:30N 34°23' W 120°08'814.7
2018-Jun-20 17:58N 34°21' W 120°17'0 0.0
2018-Jun-20 17:27N 34°21' W 120°17'4 9.3
2018-Jun-20 17:00N 34°22' W 120°12'4 7.6
2018-Jun-20 16:28N 34°23' W 120°07'0 0.3
2018-Jun-20 16:00N 34°23' W 120°07'0 0.1
2018-Jun-20 15:29N 34°23' W 120°07'2 5.0
2018-Jun-20 15:00N 34°23' W 120°10'611.3
2018-Jun-20 14:29N 34°21' W 120°17'611.5
2018-Jun-20 13:59N 34°23' W 120°10'3 5.0
2018-Jun-20 13:28N 34°23' W 120°07'0 0.0
2018-Jun-20 12:58N 34°23' W 120°07'0 0.0
2018-Jun-20 12:28N 34°23' W 120°07'0 0.0
2018-Jun-20 11:55N 34°23' W 120°07'0 0.0
2018-Jun-20 11:28N 34°23' W 120°07'0 0.0
2018-Jun-20 10:52N 34°23' W 120°07'0 0.0
2018-Jun-20 10:28N 34°23' W 120°07'0 0.0
2018-Jun-20 09:58N 34°23' W 120°07'0 0.0
2018-Jun-20 09:25N 34°23' W 120°07'0 0.0
2018-Jun-20 08:58N 34°23' W 120°07'0 0.0
2018-Jun-20 08:25N 34°23' W 120°07'0 0.0
2018-Jun-20 08:00N 34°23' W 120°07'0 0.0
2018-Jun-20 07:30N 34°23' W 120°07'0 0.0
2018-Jun-20 06:58N 34°23' W 120°07'0 0.0
2018-Jun-20 06:28N 34°23' W 120°07'0 0.0
2018-Jun-20 05:58N 34°23' W 120°07'0 0.0
2018-Jun-20 05:28N 34°23' W 120°07'0 0.1
2018-Jun-20 04:55N 34°23' W 120°07'0 0.0
2018-Jun-20 04:25N 34°23' W 120°07'0 0.0
2018-Jun-20 03:58N 34°23' W 120°07'0 0.2
2018-Jun-20 03:24N 34°23' W 120°07'0 0.0
2018-Jun-20 02:52N 34°23' W 120°07'0 0.1
2018-Jun-20 02:25N 34°23' W 120°07'0 0.0
2018-Jun-20 02:00N 34°23' W 120°07'0 0.0
2018-Jun-20 01:30N 34°23' W 120°07'0 0.0
2018-Jun-20 00:59N 34°23' W 120°07'0 0.1
2018-Jun-20 00:30N 34°23' W 120°07'0 0.1
2018-Jun-19 23:59N 34°23' W 120°07'510.5
2018-Jun-19 23:29N 34°24' W 120°01'5 9.3
2018-Jun-19 22:59N 34°26' W 119°55'1914.0
2018-Jun-19 21:37N 34°08' W 119°45'215.3
2018-Jun-19 21:30N 34°07' W 119°44'610.4
2018-Jun-19 20:54N 34°01' W 119°41'4 9.0
2018-Jun-19 20:27N 34°05' W 119°43'715.7
2018-Jun-19 20:00N 34°11' W 119°47'915.4
2018-Jun-19 19:25N 34°19' W 119°52'713.3
2018-Jun-19 18:53N 34°26' W 119°55'0 0.4
2018-Jun-19 18:26N 34°26' W 119°55'0 0.0
2018-Jun-19 18:00N 34°26' W 119°55'3 5.5
2018-Jun-19 17:27N 34°24' W 119°59'714.6
2018-Jun-19 16:58N 34°23' W 120°07'612.9
2018-Jun-19 16:30N 34°22' W 120°14'2 4.2
2018-Jun-19 15:59N 34°22' W 120°12'4 7.4
2018-Jun-19 15:29N 34°23' W 120°07'5 9.6
2018-Jun-19 15:00N 34°24' W 120°02'5 6.6
2018-Jun-19 14:11N 34°26' W 119°55'0 0.0
2018-Jun-19 13:59N 34°26' W 119°55'810.4
2018-Jun-19 13:10N 34°24' W 120°05'1 8.5
2018-Jun-19 13:00N 34°23' W 120°07'0 0.0
2018-Jun-19 12:30N 34°23' W 120°07'0 0.0
2018-Jun-19 11:57N 34°23' W 120°07'0 0.0
2018-Jun-19 11:27N 34°23' W 120°07'0 0.0
2018-Jun-19 10:57N 34°23' W 120°07'0 0.0
2018-Jun-19 10:24N 34°23' W 120°07'0 0.0
2018-Jun-19 10:00N 34°23' W 120°07'0 0.0
2018-Jun-19 09:30N 34°23' W 120°07'0 0.0
2018-Jun-19 09:00N 34°23' W 120°07'0 0.0
2018-Jun-19 08:30N 34°23' W 120°07'0 0.0
2018-Jun-19 08:00N 34°23' W 120°07'0 0.0
2018-Jun-19 07:30N 34°23' W 120°07'0 0.0
2018-Jun-19 07:00N 34°23' W 120°07'0 0.1
2018-Jun-19 06:26N 34°23' W 120°07'0 0.0
2018-Jun-19 06:00N 34°23' W 120°07'0 0.1
2018-Jun-19 05:26N 34°23' W 120°07'0 0.0
2018-Jun-19 05:00N 34°23' W 120°07'0 0.0
2018-Jun-19 04:26N 34°23' W 120°07'0 0.0
2018-Jun-19 03:58N 34°23' W 120°07'0 0.0
2018-Jun-19 03:28N 34°23' W 120°07'0 0.0
2018-Jun-19 03:00N 34°23' W 120°07'0 0.0
2018-Jun-19 02:28N 34°23' W 120°07'0 0.0
2018-Jun-19 01:59N 34°23' W 120°07'0 0.5
2018-Jun-19 01:30N 34°23' W 120°07'0 0.4
2018-Jun-19 00:51N 34°23' W 120°07'0 0.0
2018-Jun-19 00:27N 34°23' W 120°07'0 0.0
2018-Jun-19 00:00N 34°23' W 120°07'0 0.0
2018-Jun-18 23:29N 34°23' W 120°07'0 0.0
2018-Jun-18 23:00N 34°23' W 120°07'0 0.0
2018-Jun-18 22:28N 34°23' W 120°07'0 0.0
2018-Jun-18 22:00N 34°23' W 120°07'0 0.1
2018-Jun-18 21:27N 34°23' W 120°07'1 1.2
2018-Jun-18 20:58N 34°23' W 120°06'914.6
2018-Jun-18 20:23N 34°20' W 119°57'814.9
2018-Jun-18 19:49N 34°17' W 119°47'515.1
2018-Jun-18 19:30N 34°15' W 119°42'814.9
2018-Jun-18 19:00N 34°12' W 119°33'714.9
2018-Jun-18 18:30N 34°11' W 119°25'714.9
2018-Jun-18 18:00N 34°09' W 119°16'3 1.5
2018-Jun-18 15:51N 34°09' W 119°12'0 0.0
2018-Jun-18 15:00N 34°09' W 119°12'0 0.0
2018-Jun-18 14:30N 34°09' W 119°12'0 0.0
2018-Jun-18 13:59N 34°09' W 119°12'0 0.0
2018-Jun-18 13:29N 34°09' W 119°12'0 0.0
2018-Jun-18 12:59N 34°09' W 119°12'0 0.0
2018-Jun-18 12:29N 34°09' W 119°12'0 0.0
2018-Jun-18 11:56N 34°09' W 119°12'0 0.0
2018-Jun-18 11:20N 34°09' W 119°12'0 0.0
2018-Jun-18 10:59N 34°09' W 119°12'0 0.0
2018-Jun-18 10:29N 34°09' W 119°12'0 0.0
2018-Jun-18 09:50N 34°09' W 119°12'0 0.0
2018-Jun-18 09:26N 34°09' W 119°12'0 0.0
2018-Jun-18 08:59N 34°09' W 119°12'0 0.0
2018-Jun-18 08:29N 34°09' W 119°12'0 0.0
2018-Jun-18 07:56N 34°09' W 119°12'0 0.0
2018-Jun-18 07:29N 34°09' W 119°12'0 0.0
2018-Jun-18 06:59N 34°09' W 119°12'0 0.0
2018-Jun-18 06:20N 34°09' W 119°12'0 0.0
2018-Jun-18 05:59N 34°09' W 119°12'0 0.0
2018-Jun-18 05:26N 34°09' W 119°12'0 0.0
2018-Jun-18 04:59N 34°09' W 119°12'0 0.0
2018-Jun-18 04:26N 34°09' W 119°12'0 0.0
2018-Jun-18 03:59N 34°09' W 119°12'0 0.0
2018-Jun-18 03:29N 34°09' W 119°12'0 0.0
2018-Jun-18 02:53N 34°09' W 119°12'0 0.0
2018-Jun-18 02:29N 34°09' W 119°12'0 0.0
2018-Jun-18 01:59N 34°09' W 119°12'0 0.0
2018-Jun-18 01:26N 34°09' W 119°12'0 0.0
2018-Jun-18 00:56N 34°09' W 119°12'0 0.0
2018-Jun-18 00:26N 34°09' W 119°12'0 0.0
2018-Jun-17 23:56N 34°09' W 119°12'0 0.0
2018-Jun-17 23:29N 34°09' W 119°12'0 0.0
2018-Jun-17 22:59N 34°09' W 119°12'0 0.0
2018-Jun-17 22:29N 34°09' W 119°12'0 0.0
2018-Jun-17 21:59N 34°09' W 119°12'0 0.0
2018-Jun-17 21:29N 34°09' W 119°12'0 0.0
2018-Jun-17 20:59N 34°09' W 119°12'2 4.6
2018-Jun-17 20:30N 34°09' W 119°15'815.4
2018-Jun-17 20:00N 34°11' W 119°24'815.5
2018-Jun-17 19:28N 34°13' W 119°33'715.4
2018-Jun-17 19:00N 34°15' W 119°42'1115.7
2018-Jun-17 18:19N 34°19' W 119°54'515.5
2018-Jun-17 17:59N 34°21' W 119°60'7 8.9
2018-Jun-17 17:14N 34°23' W 120°07'0 0.0
2018-Jun-17 16:54N 34°23' W 120°07'0 0.1
2018-Jun-17 16:20N 34°23' W 120°07'512.7
2018-Jun-17 15:58N 34°22' W 120°13'2 4.0
2018-Jun-17 15:29N 34°21' W 120°15'917.4
2018-Jun-17 15:00N 34°24' W 120°05'810.8
2018-Jun-17 14:15N 34°26' W 119°55'0 0.3
2018-Jun-17 13:40N 34°26' W 119°55'1 6.3
2018-Jun-17 13:30N 34°25' W 119°56'815.4
2018-Jun-17 12:59N 34°24' W 120°05'2 3.3
2018-Jun-17 12:30N 34°23' W 120°07'0 0.0
2018-Jun-17 11:57N 34°23' W 120°07'0 0.0
2018-Jun-17 11:30N 34°23' W 120°07'0 0.0
2018-Jun-17 11:00N 34°23' W 120°07'0 0.0
2018-Jun-17 10:30N 34°23' W 120°07'0 0.0
2018-Jun-17 10:00N 34°23' W 120°07'0 0.0
2018-Jun-17 09:27N 34°23' W 120°07'0 0.0
2018-Jun-17 08:59N 34°23' W 120°07'0 0.0
2018-Jun-17 08:29N 34°23' W 120°07'0 0.0
2018-Jun-17 07:59N 34°23' W 120°07'0 0.0
2018-Jun-17 07:29N 34°23' W 120°07'0 0.0
2018-Jun-17 06:59N 34°23' W 120°07'0 0.0
2018-Jun-17 06:29N 34°23' W 120°07'0 0.0
2018-Jun-17 05:59N 34°23' W 120°07'0 0.0
2018-Jun-17 05:26N 34°23' W 120°07'0 0.0
2018-Jun-17 04:58N 34°23' W 120°07'0 0.0
2018-Jun-17 04:30N 34°23' W 120°07'0 0.0
2018-Jun-17 03:57N 34°23' W 120°07'0 0.0
2018-Jun-17 03:30N 34°23' W 120°07'0 0.0
2018-Jun-17 03:00N 34°23' W 120°07'0 0.0
2018-Jun-17 02:27N 34°23' W 120°07'0 0.0
2018-Jun-17 02:00N 34°23' W 120°07'0 0.0
2018-Jun-17 01:28N 34°23' W 120°07'0 0.0
2018-Jun-17 00:58N 34°23' W 120°07'0 0.0
2018-Jun-17 00:25N 34°23' W 120°07'0 0.1
2018-Jun-16 23:55N 34°23' W 120°07'0 0.0
2018-Jun-16 23:25N 34°23' W 120°07'0 0.0
2018-Jun-16 22:56N 34°23' W 120°07'0 0.1
2018-Jun-16 22:26N 34°23' W 120°07'0 0.0
2018-Jun-16 21:44N 34°23' W 120°07'0 0.0
2018-Jun-16 21:30N 34°23' W 120°07'0 0.0
2018-Jun-16 21:00N 34°23' W 120°07'0 0.0
2018-Jun-16 20:30N 34°23' W 120°07'0 0.0
2018-Jun-16 19:57N 34°23' W 120°07'0 0.0
2018-Jun-16 19:28N 34°23' W 120°07'3 3.7
2018-Jun-16 18:47N 34°23' W 120°10'0 0.0
2018-Jun-16 18:28N 34°23' W 120°10'4 9.1
2018-Jun-16 18:00N 34°21' W 120°15'1 2.9
2018-Jun-16 17:29N 34°21' W 120°17'610.7
2018-Jun-16 16:57N 34°23' W 120°10'0 0.9
2018-Jun-16 16:30N 34°23' W 120°11'0 0.8
2018-Jun-16 16:00N 34°23' W 120°10'2 4.9
2018-Jun-16 15:30N 34°23' W 120°07'4 7.3
2018-Jun-16 15:00N 34°22' W 120°11'5 9.0
2018-Jun-16 14:30N 34°21' W 120°17'4 8.3
2018-Jun-16 14:00N 34°22' W 120°12'4 8.1
2018-Jun-16 13:30N 34°23' W 120°07'0 0.2
2018-Jun-16 13:00N 34°23' W 120°07'0 0.0
2018-Jun-16 12:30N 34°23' W 120°07'0 0.0
2018-Jun-16 11:57N 34°23' W 120°07'0 0.0
2018-Jun-16 11:21N 34°23' W 120°07'0 0.0
2018-Jun-16 11:00N 34°23' W 120°07'0 0.0
2018-Jun-16 09:13N 34°23' W 120°07'0 0.0
2018-Jun-16 08:17N 34°23' W 120°07'0 0.0
2018-Jun-16 07:38N 34°23' W 120°07'0 0.0
2018-Jun-16 07:29N 34°23' W 120°07'0 0.0
2018-Jun-16 06:58N 34°23' W 120°07'0 0.0
2018-Jun-16 06:28N 34°23' W 120°07'0 0.0
2018-Jun-16 05:40N 34°23' W 120°07'0 0.0
2018-Jun-16 05:28N 34°23' W 120°07'0 0.0
2018-Jun-16 03:02N 34°23' W 120°07'0 0.0
2018-Jun-16 01:26N 34°23' W 120°07'0 0.0
2018-Jun-15 22:22N 34°23' W 120°07'4 9.7
2018-Jun-15 21:54N 34°22' W 120°02'715.5
2018-Jun-15 21:28N 34°20' W 119°54'815.2
2018-Jun-15 20:57N 34°17' W 119°45'815.5
2018-Jun-15 20:24N 34°14' W 119°36'1014.2
2018-Jun-15 19:43N 34°11' W 119°25'515.5
2018-Jun-15 19:24N 34°10' W 119°19'6 0.8
2018-Jun-15 12:10N 34°09' W 119°12'0 0.0
2018-Jun-15 09:47N 34°09' W 119°12'0 0.0
2018-Jun-15 08:11N 34°09' W 119°12'0 0.0
2018-Jun-15 08:00N 34°09' W 119°12'0 0.0
2018-Jun-15 07:20N 34°09' W 119°12'0 0.0
2018-Jun-15 03:14N 34°09' W 119°12'0 0.0
2018-Jun-15 01:35N 34°09' W 119°12'0 0.0
2018-Jun-15 01:29N 34°09' W 119°12'0 0.0
2018-Jun-15 00:56N 34°09' W 119°12'0 0.0
2018-Jun-15 00:29N 34°09' W 119°12'0 0.0
2018-Jun-14 23:17N 34°09' W 119°12'3 9.3
2018-Jun-14 23:00N 34°09' W 119°15'816.0
2018-Jun-14 22:30N 34°11' W 119°25'816.0
2018-Jun-14 22:00N 34°12' W 119°34'815.4
2018-Jun-14 21:28N 34°15' W 119°44'715.2
2018-Jun-14 20:59N 34°18' W 119°52'914.9
2018-Jun-14 20:24N 34°22' W 120°01'512.4
2018-Jun-14 20:00N 34°23' W 120°07'0 1.0
2018-Jun-14 19:30N 34°23' W 120°07'0 0.3
2018-Jun-14 19:00N 34°23' W 120°07'0 0.0
2018-Jun-14 18:29N 34°23' W 120°07'3 4.6
2018-Jun-14 17:56N 34°23' W 120°10'0 0.0
2018-Jun-14 17:26N 34°23' W 120°10'0 0.0
2018-Jun-14 16:59N 34°23' W 120°10'1014.9
2018-Jun-14 16:20N 34°23' W 119°58'2 6.4
2018-Jun-14 15:57N 34°24' W 119°56'2 2.8
2018-Jun-14 15:22N 34°26' W 119°55'0 0.1
2018-Jun-14 15:00N 34°26' W 119°55'0 0.0
2018-Jun-14 14:30N 34°26' W 119°55'0 0.3
2018-Jun-14 13:52N 34°26' W 119°55'0 0.0
2018-Jun-14 13:10N 34°26' W 119°55'0 0.0
2018-Jun-14 12:54N 34°26' W 119°55'0 0.0
2018-Jun-14 12:20N 34°26' W 119°55'0 0.0
2018-Jun-14 12:00N 34°26' W 119°55'0 0.0
2018-Jun-14 11:20N 34°26' W 119°55'0 0.0
2018-Jun-14 10:58N 34°26' W 119°55'0 0.0
2018-Jun-14 09:21N 34°26' W 119°55'0 0.0
2018-Jun-14 07:39N 34°26' W 119°55'0 0.0
2018-Jun-14 07:15N 34°26' W 119°55'0 0.0
2018-Jun-14 06:51N 34°26' W 119°55'0 0.0
2018-Jun-14 05:38N 34°26' W 119°55'0 0.0
2018-Jun-14 05:11N 34°26' W 119°55'0 0.0
2018-Jun-14 04:56N 34°26' W 119°55'0 0.0
2018-Jun-14 04:14N 34°26' W 119°55'0 0.0
2018-Jun-14 03:47N 34°26' W 119°55'0 0.0
2018-Jun-14 03:17N 34°26' W 119°55'0 0.0
2018-Jun-14 01:26N 34°26' W 119°55'0 0.4
2018-Jun-14 00:54N 34°26' W 119°55'611.4
2018-Jun-14 00:23N 34°24' W 120°02'410.1
2018-Jun-13 23:58N 34°23' W 120°07'3 5.9
2018-Jun-13 23:29N 34°22' W 120°10'510.9
2018-Jun-13 23:00N 34°21' W 120°17'4 8.8
2018-Jun-13 22:29N 34°22' W 120°11'1 2.9
2018-Jun-13 22:00N 34°22' W 120°10'0 0.1
2018-Jun-13 21:29N 34°23' W 120°10'0 0.0
2018-Jun-13 21:00N 34°23' W 120°10'0 0.0
2018-Jun-13 20:27N 34°22' W 120°10'0 0.0
2018-Jun-13 20:00N 34°22' W 120°10'0 0.0
2018-Jun-13 19:30N 34°22' W 120°10'0 0.0
2018-Jun-13 18:58N 34°22' W 120°10'0 0.0
2018-Jun-13 18:28N 34°22' W 120°10'0 0.0
2018-Jun-13 17:58N 34°22' W 120°10'0 0.0
2018-Jun-13 17:28N 34°22' W 120°10'0 0.0
2018-Jun-13 16:58N 34°22' W 120°10'0 0.0
2018-Jun-13 16:28N 34°22' W 120°10'612.3
2018-Jun-13 16:00N 34°21' W 120°17'611.1
2018-Jun-13 15:29N 34°23' W 120°10'510.2
2018-Jun-13 14:58N 34°24' W 120°03'713.5
2018-Jun-13 14:27N 34°26' W 119°55'  
Track history (hours):
 
Tides and Currents Weather Stations Pressure Air Temp Water Temp Dewpoint Dewpoint Depression Visibility Wind Speed Wind Dir Waves Ship Positions

Lovely Linda

Owner: LUGO, PETER A, CAPE CORAL, FL. More information available from US FCC via Universal Licensing System and Coast Guard Vessel Documentation Center.

Last reported at 2018-Jun-23 14:00 UTC. Time now 2018-Jun-23 14:14 UTC.
Position N 34°23' W 120°08'.

Length 32 m.

Type: Passenger vessel. MMSI: 367077090.

Date/timePositionNaut miles runAvg speedWind from/ knotsBaromVisibWave heightAir tempDewpointWater temp
2018-Jun-23 14:00N 34°23' W 120°08'1 1.4
2018-Jun-23 13:23N 34°23' W 120°07'0 0.0
2018-Jun-23 12:47N 34°23' W 120°07'0 0.0
2018-Jun-23 12:29N 34°23' W 120°07'0 0.0
2018-Jun-23 11:59N 34°23' W 120°07'0 0.0
2018-Jun-23 11:29N 34°23' W 120°07'0 0.0
2018-Jun-23 10:11N 34°23' W 120°07'0 0.0
2018-Jun-23 09:59N 34°23' W 120°07'0 0.0
2018-Jun-23 09:26N 34°23' W 120°07'0 0.0
2018-Jun-23 08:59N 34°23' W 120°07'0 0.0
2018-Jun-23 08:29N 34°23' W 120°07'0 0.0
2018-Jun-23 07:59N 34°23' W 120°07'0 0.0
2018-Jun-23 07:17N 34°23' W 120°07'0 0.0
2018-Jun-23 06:59N 34°23' W 120°07'0 0.0
2018-Jun-23 06:29N 34°23' W 120°07'0 0.0
2018-Jun-23 05:59N 34°23' W 120°07'0 0.0
2018-Jun-23 05:29N 34°23' W 120°07'0 0.0
2018-Jun-23 04:59N 34°23' W 120°07'0 0.0
2018-Jun-23 04:29N 34°23' W 120°07'0 0.0
2018-Jun-23 03:59N 34°23' W 120°07'0 0.0
2018-Jun-23 03:29N 34°23' W 120°07'0 0.0
2018-Jun-23 02:53N 34°23' W 120°07'0 0.1
2018-Jun-23 02:28N 34°23' W 120°07'0 0.0
2018-Jun-23 01:52N 34°23' W 120°07'0 0.0
2018-Jun-23 01:28N 34°23' W 120°07'0 0.1
2018-Jun-23 00:58N 34°23' W 120°07'0 0.1
2018-Jun-23 00:25N 34°23' W 120°07'0 0.0
2018-Jun-22 23:52N 34°23' W 120°07'0 0.0
2018-Jun-22 23:28N 34°23' W 120°07'2 3.3
2018-Jun-22 23:00N 34°23' W 120°09'3 5.3
2018-Jun-22 22:30N 34°22' W 120°12'4 8.0
2018-Jun-22 21:59N 34°21' W 120°17'713.3
2018-Jun-22 21:30N 34°19' W 120°09'915.1
2018-Jun-22 20:55N 34°18' W 119°59'814.9
2018-Jun-22 20:22N 34°16' W 119°49'514.8
2018-Jun-22 20:00N 34°15' W 119°43'814.9
2018-Jun-22 19:26N 34°13' W 119°33'714.6
2018-Jun-22 18:57N 34°12' W 119°24'714.5
2018-Jun-22 18:28N 34°09' W 119°16'4 7.1
2018-Jun-22 17:58N 34°09' W 119°12'0 0.0
2018-Jun-22 17:28N 34°09' W 119°12'0 0.0
2018-Jun-22 16:58N 34°09' W 119°12'0 0.0
2018-Jun-22 16:28N 34°09' W 119°12'0 0.0
2018-Jun-22 15:55N 34°09' W 119°12'0 0.0
2018-Jun-22 15:25N 34°09' W 119°12'0 0.0
2018-Jun-22 14:58N 34°09' W 119°12'0 0.0
2018-Jun-22 14:25N 34°09' W 119°12'0 0.0
2018-Jun-22 14:00N 34°09' W 119°12'0 0.0
2018-Jun-22 13:28N 34°09' W 119°12'0 0.0
2018-Jun-22 12:58N 34°09' W 119°12'0 0.0
2018-Jun-22 12:22N 34°09' W 119°12'0 0.0
2018-Jun-22 11:58N 34°09' W 119°12'0 0.0
2018-Jun-22 11:22N 34°09' W 119°12'0 0.0
2018-Jun-22 10:58N 34°09' W 119°12'0 0.0
2018-Jun-22 10:28N 34°09' W 119°12'0 0.0
2018-Jun-22 09:58N 34°09' W 119°12'0 0.0
2018-Jun-22 09:28N 34°09' W 119°12'0 0.0
2018-Jun-22 08:58N 34°09' W 119°12'0 0.0
2018-Jun-22 08:25N 34°09' W 119°12'0 0.0
2018-Jun-22 07:58N 34°09' W 119°12'0 0.0
2018-Jun-22 07:22N 34°09' W 119°12'0 0.0
2018-Jun-22 06:55N 34°09' W 119°12'0 0.0
2018-Jun-22 06:28N 34°09' W 119°12'0 0.0
2018-Jun-22 05:57N 34°09' W 119°12'0 0.0
2018-Jun-22 05:21N 34°09' W 119°12'0 0.0
2018-Jun-22 05:00N 34°09' W 119°12'0 0.0
2018-Jun-22 04:30N 34°09' W 119°12'0 0.0
2018-Jun-22 04:00N 34°09' W 119°12'0 0.0
2018-Jun-22 03:30N 34°09' W 119°12'0 0.0
2018-Jun-22 03:00N 34°09' W 119°12'0 0.0
2018-Jun-22 02:27N 34°09' W 119°12'0 0.0
2018-Jun-22 01:58N 34°09' W 119°12'0 0.0
2018-Jun-22 01:19N 34°09' W 119°12'2 7.7
2018-Jun-22 01:00N 34°09' W 119°15'814.9
2018-Jun-22 00:28N 34°12' W 119°24'815.4
2018-Jun-21 23:57N 34°15' W 119°33'714.9
2018-Jun-21 23:27N 34°19' W 119°41'1314.6
2018-Jun-21 22:34N 34°24' W 119°55'212.6
2018-Jun-21 22:24N 34°26' W 119°55'411.0
2018-Jun-21 22:00N 34°24' W 120°00'714.0
2018-Jun-21 21:28N 34°22' W 120°09'1 1.5
2018-Jun-21 20:59N 34°22' W 120°10'0 0.0
2018-Jun-21 20:27N 34°22' W 120°10'0 0.0
2018-Jun-21 19:57N 34°22' W 120°10'0 0.5
2018-Jun-21 19:26N 34°23' W 120°10'2 4.6
2018-Jun-21 19:00N 34°22' W 120°12'4 7.6
2018-Jun-21 18:30N 34°21' W 120°17'610.5
2018-Jun-21 17:57N 34°22' W 120°10'0 0.0
2018-Jun-21 17:30N 34°22' W 120°10'0 0.0
2018-Jun-21 17:00N 34°22' W 120°10'0 0.0
2018-Jun-21 16:29N 34°22' W 120°10'0 0.0
2018-Jun-21 15:59N 34°22' W 120°10'713.5
2018-Jun-21 15:30N 34°24' W 120°02'611.4
2018-Jun-21 15:00N 34°26' W 119°55'0 0.1
2018-Jun-21 14:30N 34°26' W 119°55'0 0.1
2018-Jun-21 12:36N 34°26' W 119°55'0 0.0
2018-Jun-21 05:24N 34°26' W 119°55'0 0.0
2018-Jun-21 01:42N 34°26' W 119°55'0 0.0
2018-Jun-21 01:15N 34°26' W 119°55'0 0.0
2018-Jun-21 00:59N 34°26' W 119°55'4 7.4
2018-Jun-21 00:23N 34°24' W 120°00'614.2
2018-Jun-20 23:58N 34°23' W 120°07'2 5.1
2018-Jun-20 23:29N 34°23' W 120°10'611.7
2018-Jun-20 23:00N 34°21' W 120°17'611.8
2018-Jun-20 22:30N 34°22' W 120°10'0 0.0
2018-Jun-20 22:00N 34°22' W 120°10'0 0.0
2018-Jun-20 21:30N 34°23' W 120°10'0 0.0
2018-Jun-20 20:59N 34°23' W 120°10'0 0.0
2018-Jun-20 20:29N 34°23' W 120°10'0 0.0
2018-Jun-20 19:59N 34°23' W 120°10'2 4.8
2018-Jun-20 19:30N 34°23' W 120°07'2 5.0
2018-Jun-20 19:00N 34°23' W 120°10'2 4.3
2018-Jun-20 18:30N 34°23' W 120°08'814.7
2018-Jun-20 17:58N 34°21' W 120°17'0 0.0
2018-Jun-20 17:27N 34°21' W 120°17'4 9.3
2018-Jun-20 17:00N 34°22' W 120°12'4 7.6
2018-Jun-20 16:28N 34°23' W 120°07'0 0.3
2018-Jun-20 16:00N 34°23' W 120°07'0 0.1
2018-Jun-20 15:29N 34°23' W 120°07'2 5.0
2018-Jun-20 15:00N 34°23' W 120°10'611.3
2018-Jun-20 14:29N 34°21' W 120°17'611.5
2018-Jun-20 13:59N 34°23' W 120°10'3 5.0
2018-Jun-20 13:28N 34°23' W 120°07'0 0.0
2018-Jun-20 12:58N 34°23' W 120°07'0 0.0
2018-Jun-20 12:28N 34°23' W 120°07'0 0.0
2018-Jun-20 11:55N 34°23' W 120°07'0 0.0
2018-Jun-20 11:28N 34°23' W 120°07'0 0.0
2018-Jun-20 10:52N 34°23' W 120°07'0 0.0
2018-Jun-20 10:28N 34°23' W 120°07'0 0.0
2018-Jun-20 09:58N 34°23' W 120°07'0 0.0
2018-Jun-20 09:25N 34°23' W 120°07'0 0.0
2018-Jun-20 08:58N 34°23' W 120°07'0 0.0
2018-Jun-20 08:25N 34°23' W 120°07'0 0.0
2018-Jun-20 08:00N 34°23' W 120°07'0 0.0
2018-Jun-20 07:30N 34°23' W 120°07'0 0.0
2018-Jun-20 06:58N 34°23' W 120°07'0 0.0
2018-Jun-20 06:28N 34°23' W 120°07'0 0.0
2018-Jun-20 05:58N 34°23' W 120°07'0 0.0
2018-Jun-20 05:28N 34°23' W 120°07'0 0.1
2018-Jun-20 04:55N 34°23' W 120°07'0 0.0
2018-Jun-20 04:25N 34°23' W 120°07'0 0.0
2018-Jun-20 03:58N 34°23' W 120°07'0 0.2
2018-Jun-20 03:24N 34°23' W 120°07'0 0.0
2018-Jun-20 02:52N 34°23' W 120°07'0 0.1
2018-Jun-20 02:25N 34°23' W 120°07'0 0.0
2018-Jun-20 02:00N 34°23' W 120°07'0 0.0
2018-Jun-20 01:30N 34°23' W 120°07'0 0.0
2018-Jun-20 00:59N 34°23' W 120°07'0 0.1
2018-Jun-20 00:30N 34°23' W 120°07'0 0.1
2018-Jun-19 23:59N 34°23' W 120°07'510.5
2018-Jun-19 23:29N 34°24' W 120°01'5 9.3
2018-Jun-19 22:59N 34°26' W 119°55'1914.0
2018-Jun-19 21:37N 34°08' W 119°45'215.3
2018-Jun-19 21:30N 34°07' W 119°44'610.4
2018-Jun-19 20:54N 34°01' W 119°41'4 9.0
2018-Jun-19 20:27N 34°05' W 119°43'715.7
2018-Jun-19 20:00N 34°11' W 119°47'915.4
2018-Jun-19 19:25N 34°19' W 119°52'713.3
2018-Jun-19 18:53N 34°26' W 119°55'0 0.4
2018-Jun-19 18:26N 34°26' W 119°55'0 0.0
2018-Jun-19 18:00N 34°26' W 119°55'3 5.5
2018-Jun-19 17:27N 34°24' W 119°59'714.6
2018-Jun-19 16:58N 34°23' W 120°07'612.9
2018-Jun-19 16:30N 34°22' W 120°14'2 4.2
2018-Jun-19 15:59N 34°22' W 120°12'4 7.4
2018-Jun-19 15:29N 34°23' W 120°07'5 9.6
2018-Jun-19 15:00N 34°24' W 120°02'5 6.6
2018-Jun-19 14:11N 34°26' W 119°55'0 0.0
2018-Jun-19 13:59N 34°26' W 119°55'810.4
2018-Jun-19 13:10N 34°24' W 120°05'1 8.5
2018-Jun-19 13:00N 34°23' W 120°07'0 0.0
2018-Jun-19 12:30N 34°23' W 120°07'0 0.0
2018-Jun-19 11:57N 34°23' W 120°07'0 0.0
2018-Jun-19 11:27N 34°23' W 120°07'0 0.0
2018-Jun-19 10:57N 34°23' W 120°07'0 0.0
2018-Jun-19 10:24N 34°23' W 120°07'0 0.0
2018-Jun-19 10:00N 34°23' W 120°07'0 0.0
2018-Jun-19 09:30N 34°23' W 120°07'0 0.0
2018-Jun-19 09:00N 34°23' W 120°07'0 0.0
2018-Jun-19 08:30N 34°23' W 120°07'0 0.0
2018-Jun-19 08:00N 34°23' W 120°07'0 0.0
2018-Jun-19 07:30N 34°23' W 120°07'0 0.0
2018-Jun-19 07:00N 34°23' W 120°07'0 0.1
2018-Jun-19 06:26N 34°23' W 120°07'0 0.0
2018-Jun-19 06:00N 34°23' W 120°07'0 0.1
2018-Jun-19 05:26N 34°23' W 120°07'0 0.0
2018-Jun-19 05:00N 34°23' W 120°07'0 0.0
2018-Jun-19 04:26N 34°23' W 120°07'0 0.0
2018-Jun-19 03:58N 34°23' W 120°07'0 0.0
2018-Jun-19 03:28N 34°23' W 120°07'0 0.0
2018-Jun-19 03:00N 34°23' W 120°07'0 0.0
2018-Jun-19 02:28N 34°23' W 120°07'0 0.0
2018-Jun-19 01:59N 34°23' W 120°07'0 0.5
2018-Jun-19 01:30N 34°23' W 120°07'0 0.4
2018-Jun-19 00:51N 34°23' W 120°07'0 0.0
2018-Jun-19 00:27N 34°23' W 120°07'0 0.0
2018-Jun-19 00:00N 34°23' W 120°07'0 0.0
2018-Jun-18 23:29N 34°23' W 120°07'0 0.0
2018-Jun-18 23:00N 34°23' W 120°07'0 0.0
2018-Jun-18 22:28N 34°23' W 120°07'0 0.0
2018-Jun-18 22:00N 34°23' W 120°07'0 0.1
2018-Jun-18 21:27N 34°23' W 120°07'1 1.2
2018-Jun-18 20:58N 34°23' W 120°06'914.6
2018-Jun-18 20:23N 34°20' W 119°57'814.9
2018-Jun-18 19:49N 34°17' W 119°47'515.1
2018-Jun-18 19:30N 34°15' W 119°42'814.9
2018-Jun-18 19:00N 34°12' W 119°33'714.9
2018-Jun-18 18:30N 34°11' W 119°25'714.9
2018-Jun-18 18:00N 34°09' W 119°16'3 1.5
2018-Jun-18 15:51N 34°09' W 119°12'0 0.0
2018-Jun-18 15:00N 34°09' W 119°12'0 0.0
2018-Jun-18 14:30N 34°09' W 119°12'0 0.0
2018-Jun-18 13:59N 34°09' W 119°12'0 0.0
2018-Jun-18 13:29N 34°09' W 119°12'0 0.0
2018-Jun-18 12:59N 34°09' W 119°12'0 0.0
2018-Jun-18 12:29N 34°09' W 119°12'0 0.0
2018-Jun-18 11:56N 34°09' W 119°12'0 0.0
2018-Jun-18 11:20N 34°09' W 119°12'0 0.0
2018-Jun-18 10:59N 34°09' W 119°12'0 0.0
2018-Jun-18 10:29N 34°09' W 119°12'0 0.0
2018-Jun-18 09:50N 34°09' W 119°12'0 0.0
2018-Jun-18 09:26N 34°09' W 119°12'0 0.0
2018-Jun-18 08:59N 34°09' W 119°12'0 0.0
2018-Jun-18 08:29N 34°09' W 119°12'0 0.0
2018-Jun-18 07:56N 34°09' W 119°12'0 0.0
2018-Jun-18 07:29N 34°09' W 119°12'0 0.0
2018-Jun-18 06:59N 34°09' W 119°12'0 0.0
2018-Jun-18 06:20N 34°09' W 119°12'0 0.0
2018-Jun-18 05:59N 34°09' W 119°12'0 0.0
2018-Jun-18 05:26N 34°09' W 119°12'0 0.0
2018-Jun-18 04:59N 34°09' W 119°12'0 0.0
2018-Jun-18 04:26N 34°09' W 119°12'0 0.0
2018-Jun-18 03:59N 34°09' W 119°12'0 0.0
2018-Jun-18 03:29N 34°09' W 119°12'0 0.0
2018-Jun-18 02:53N 34°09' W 119°12'0 0.0
2018-Jun-18 02:29N 34°09' W 119°12'0 0.0
2018-Jun-18 01:59N 34°09' W 119°12'0 0.0
2018-Jun-18 01:26N 34°09' W 119°12'0 0.0
2018-Jun-18 00:56N 34°09' W 119°12'0 0.0
2018-Jun-18 00:26N 34°09' W 119°12'0 0.0
2018-Jun-17 23:56N 34°09' W 119°12'0 0.0
2018-Jun-17 23:29N 34°09' W 119°12'0 0.0
2018-Jun-17 22:59N 34°09' W 119°12'0 0.0
2018-Jun-17 22:29N 34°09' W 119°12'0 0.0
2018-Jun-17 21:59N 34°09' W 119°12'0 0.0
2018-Jun-17 21:29N 34°09' W 119°12'0 0.0
2018-Jun-17 20:59N 34°09' W 119°12'2 4.6
2018-Jun-17 20:30N 34°09' W 119°15'815.4
2018-Jun-17 20:00N 34°11' W 119°24'815.5
2018-Jun-17 19:28N 34°13' W 119°33'715.4
2018-Jun-17 19:00N 34°15' W 119°42'1115.7
2018-Jun-17 18:19N 34°19' W 119°54'515.5
2018-Jun-17 17:59N 34°21' W 119°60'7 8.9
2018-Jun-17 17:14N 34°23' W 120°07'0 0.0
2018-Jun-17 16:54N 34°23' W 120°07'0 0.1
2018-Jun-17 16:20N 34°23' W 120°07'512.7
2018-Jun-17 15:58N 34°22' W 120°13'2 4.0
2018-Jun-17 15:29N 34°21' W 120°15'917.4
2018-Jun-17 15:00N 34°24' W 120°05'810.8
2018-Jun-17 14:15N 34°26' W 119°55'0 0.3
2018-Jun-17 13:40N 34°26' W 119°55'1 6.3
2018-Jun-17 13:30N 34°25' W 119°56'815.4
2018-Jun-17 12:59N 34°24' W 120°05'2 3.3
2018-Jun-17 12:30N 34°23' W 120°07'0 0.0
2018-Jun-17 11:57N 34°23' W 120°07'0 0.0
2018-Jun-17 11:30N 34°23' W 120°07'0 0.0
2018-Jun-17 11:00N 34°23' W 120°07'0 0.0
2018-Jun-17 10:30N 34°23' W 120°07'0 0.0
2018-Jun-17 10:00N 34°23' W 120°07'0 0.0
2018-Jun-17 09:27N 34°23' W 120°07'0 0.0
2018-Jun-17 08:59N 34°23' W 120°07'0 0.0
2018-Jun-17 08:29N 34°23' W 120°07'0 0.0
2018-Jun-17 07:59N 34°23' W 120°07'0 0.0
2018-Jun-17 07:29N 34°23' W 120°07'0 0.0
2018-Jun-17 06:59N 34°23' W 120°07'0 0.0
2018-Jun-17 06:29N 34°23' W 120°07'0 0.0
2018-Jun-17 05:59N 34°23' W 120°07'0 0.0
2018-Jun-17 05:26N 34°23' W 120°07'0 0.0
2018-Jun-17 04:58N 34°23' W 120°07'0 0.0
2018-Jun-17 04:30N 34°23' W 120°07'0 0.0
2018-Jun-17 03:57N 34°23' W 120°07'0 0.0
2018-Jun-17 03:30N 34°23' W 120°07'0 0.0
2018-Jun-17 03:00N 34°23' W 120°07'0 0.0
2018-Jun-17 02:27N 34°23' W 120°07'0 0.0
2018-Jun-17 02:00N 34°23' W 120°07'0 0.0
2018-Jun-17 01:28N 34°23' W 120°07'0 0.0
2018-Jun-17 00:58N 34°23' W 120°07'0 0.0
2018-Jun-17 00:25N 34°23' W 120°07'0 0.1
2018-Jun-16 23:55N 34°23' W 120°07'0 0.0
2018-Jun-16 23:25N 34°23' W 120°07'0 0.0
2018-Jun-16 22:56N 34°23' W 120°07'0 0.1
2018-Jun-16 22:26N 34°23' W 120°07'0 0.0
2018-Jun-16 21:44N 34°23' W 120°07'0 0.0
2018-Jun-16 21:30N 34°23' W 120°07'0 0.0
2018-Jun-16 21:00N 34°23' W 120°07'0 0.0
2018-Jun-16 20:30N 34°23' W 120°07'0 0.0
2018-Jun-16 19:57N 34°23' W 120°07'0 0.0
2018-Jun-16 19:28N 34°23' W 120°07'3 3.7
2018-Jun-16 18:47N 34°23' W 120°10'0 0.0
2018-Jun-16 18:28N 34°23' W 120°10'4 9.1
2018-Jun-16 18:00N 34°21' W 120°15'1 2.9
2018-Jun-16 17:29N 34°21' W 120°17'610.7
2018-Jun-16 16:57N 34°23' W 120°10'0 0.9
2018-Jun-16 16:30N 34°23' W 120°11'0 0.8
2018-Jun-16 16:00N 34°23' W 120°10'2 4.9
2018-Jun-16 15:30N 34°23' W 120°07'4 7.3
2018-Jun-16 15:00N 34°22' W 120°11'5 9.0
2018-Jun-16 14:30N 34°21' W 120°17'4 8.3
2018-Jun-16 14:00N 34°22' W 120°12'4 8.1
2018-Jun-16 13:30N 34°23' W 120°07'0 0.2
2018-Jun-16 13:00N 34°23' W 120°07'0 0.0
2018-Jun-16 12:30N 34°23' W 120°07'0 0.0
2018-Jun-16 11:57N 34°23' W 120°07'0 0.0
2018-Jun-16 11:21N 34°23' W 120°07'0 0.0
2018-Jun-16 11:00N 34°23' W 120°07'0 0.0
2018-Jun-16 09:13N 34°23' W 120°07'0 0.0
2018-Jun-16 08:17N 34°23' W 120°07'0 0.0
2018-Jun-16 07:38N 34°23' W 120°07'0 0.0
2018-Jun-16 07:29N 34°23' W 120°07'0 0.0
2018-Jun-16 06:58N 34°23' W 120°07'0 0.0
2018-Jun-16 06:28N 34°23' W 120°07'0 0.0
2018-Jun-16 05:40N 34°23' W 120°07'0 0.0
2018-Jun-16 05:28N 34°23' W 120°07'0 0.0
2018-Jun-16 03:02N 34°23' W 120°07'0 0.0
2018-Jun-16 01:26N 34°23' W 120°07'0 0.0
2018-Jun-15 22:22N 34°23' W 120°07'4 9.7
2018-Jun-15 21:54N 34°22' W 120°02'715.5
2018-Jun-15 21:28N 34°20' W 119°54'815.2
2018-Jun-15 20:57N 34°17' W 119°45'815.5
2018-Jun-15 20:24N 34°14' W 119°36'1014.2
2018-Jun-15 19:43N 34°11' W 119°25'515.5
2018-Jun-15 19:24N 34°10' W 119°19'6 0.8
2018-Jun-15 12:10N 34°09' W 119°12'0 0.0
2018-Jun-15 09:47N 34°09' W 119°12'0 0.0
2018-Jun-15 08:11N 34°09' W 119°12'0 0.0
2018-Jun-15 08:00N 34°09' W 119°12'0 0.0
2018-Jun-15 07:20N 34°09' W 119°12'0 0.0
2018-Jun-15 03:14N 34°09' W 119°12'0 0.0
2018-Jun-15 01:35N 34°09' W 119°12'0 0.0
2018-Jun-15 01:29N 34°09' W 119°12'0 0.0
2018-Jun-15 00:56N 34°09' W 119°12'0 0.0
2018-Jun-15 00:29N 34°09' W 119°12'0 0.0
2018-Jun-14 23:17N 34°09' W 119°12'3 9.3
2018-Jun-14 23:00N 34°09' W 119°15'816.0
2018-Jun-14 22:30N 34°11' W 119°25'816.0
2018-Jun-14 22:00N 34°12' W 119°34'815.4
2018-Jun-14 21:28N 34°15' W 119°44'715.2
2018-Jun-14 20:59N 34°18' W 119°52'914.9
2018-Jun-14 20:24N 34°22' W 120°01'512.4
2018-Jun-14 20:00N 34°23' W 120°07'0 1.0
2018-Jun-14 19:30N 34°23' W 120°07'0 0.3
2018-Jun-14 19:00N 34°23' W 120°07'0 0.0
2018-Jun-14 18:29N 34°23' W 120°07'3 4.6
2018-Jun-14 17:56N 34°23' W 120°10'0 0.0
2018-Jun-14 17:26N 34°23' W 120°10'0 0.0
2018-Jun-14 16:59N 34°23' W 120°10'1014.9
2018-Jun-14 16:20N 34°23' W 119°58'2 6.4
2018-Jun-14 15:57N 34°24' W 119°56'2 2.8
2018-Jun-14 15:22N 34°26' W 119°55'0 0.1
2018-Jun-14 15:00N 34°26' W 119°55'0 0.0
2018-Jun-14 14:30N 34°26' W 119°55'0 0.3
2018-Jun-14 13:52N 34°26' W 119°55'0 0.0
2018-Jun-14 13:10N 34°26' W 119°55'0 0.0
2018-Jun-14 12:54N 34°26' W 119°55'0 0.0
2018-Jun-14 12:20N 34°26' W 119°55'0 0.0
2018-Jun-14 12:00N 34°26' W 119°55'0 0.0
2018-Jun-14 11:20N 34°26' W 119°55'0 0.0
2018-Jun-14 10:58N 34°26' W 119°55'0 0.0
2018-Jun-14 09:21N 34°26' W 119°55'0 0.0
2018-Jun-14 07:39N 34°26' W 119°55'0 0.0
2018-Jun-14 07:15N 34°26' W 119°55'0 0.0
2018-Jun-14 06:51N 34°26' W 119°55'0 0.0
2018-Jun-14 05:38N 34°26' W 119°55'0 0.0
2018-Jun-14 05:11N 34°26' W 119°55'0 0.0
2018-Jun-14 04:56N 34°26' W 119°55'0 0.0
2018-Jun-14 04:14N 34°26' W 119°55'0 0.0
2018-Jun-14 03:47N 34°26' W 119°55'0 0.0
2018-Jun-14 03:17N 34°26' W 119°55'0 0.0
2018-Jun-14 01:26N 34°26' W 119°55'0 0.4
2018-Jun-14 00:54N 34°26' W 119°55'611.4
2018-Jun-14 00:23N 34°24' W 120°02'410.1
2018-Jun-13 23:58N 34°23' W 120°07'3 5.9
2018-Jun-13 23:29N 34°22' W 120°10'510.9
2018-Jun-13 23:00N 34°21' W 120°17'4 8.8
2018-Jun-13 22:29N 34°22' W 120°11'1 2.9
2018-Jun-13 22:00N 34°22' W 120°10'0 0.1
2018-Jun-13 21:29N 34°23' W 120°10'0 0.0
2018-Jun-13 21:00N 34°23' W 120°10'0 0.0
2018-Jun-13 20:27N 34°22' W 120°10'0 0.0
2018-Jun-13 20:00N 34°22' W 120°10'0 0.0
2018-Jun-13 19:30N 34°22' W 120°10'0 0.0
2018-Jun-13 18:58N 34°22' W 120°10'0 0.0
2018-Jun-13 18:28N 34°22' W 120°10'0 0.0
2018-Jun-13 17:58N 34°22' W 120°10'0 0.0
2018-Jun-13 17:28N 34°22' W 120°10'0 0.0
2018-Jun-13 16:58N 34°22' W 120°10'0 0.0
2018-Jun-13 16:28N 34°22' W 120°10'612.3
2018-Jun-13 16:00N 34°21' W 120°17'611.1
2018-Jun-13 15:29N 34°23' W 120°10'510.2
2018-Jun-13 14:58N 34°24' W 120°03'713.5
2018-Jun-13 14:27N 34°26' W 119°55'  

Dump ship's entire track history